sensor_id;sensor_type;location;lat;lon;timestamp;pressure;altitude;pressure_sealevel;temperature;humidity
71735;BME280;59577;52.122;5.406;2023-05-03T00:00:06;103062.88;;;6.25;73.73
71735;BME280;59577;52.122;5.406;2023-05-03T00:02:34;103059.38;;;6.24;73.65
71735;BME280;59577;52.122;5.406;2023-05-03T00:05:06;103062.06;;;6.24;74.04
71735;BME280;59577;52.122;5.406;2023-05-03T00:07:38;103058.03;;;6.21;73.98
71735;BME280;59577;52.122;5.406;2023-05-03T00:10:06;103057.22;;;6.21;73.89
71735;BME280;59577;52.122;5.406;2023-05-03T00:12:33;103061.78;;;6.20;73.70
71735;BME280;59577;52.122;5.406;2023-05-03T00:15:00;103057.50;;;6.19;73.57
71735;BME280;59577;52.122;5.406;2023-05-03T00:17:26;103062.59;;;6.21;73.32
71735;BME280;59577;52.122;5.406;2023-05-03T00:19:53;103052.66;;;6.16;73.35
71735;BME280;59577;52.122;5.406;2023-05-03T00:22:21;103053.69;;;6.10;73.63
71735;BME280;59577;52.122;5.406;2023-05-03T00:24:48;103055.06;;;6.08;73.75
71735;BME280;59577;52.122;5.406;2023-05-03T00:27:17;103053.16;;;6.03;73.72
71735;BME280;59577;52.122;5.406;2023-05-03T00:29:44;103056.91;;;6.02;73.68
71735;BME280;59577;52.122;5.406;2023-05-03T00:32:11;103063.09;;;5.97;73.84
71735;BME280;59577;52.122;5.406;2023-05-03T00:34:37;103064.38;;;5.95;73.70
71735;BME280;59577;52.122;5.406;2023-05-03T00:37:04;103062.78;;;5.94;74.21
71735;BME280;59577;52.122;5.406;2023-05-03T00:39:31;103063.84;;;5.93;73.66
71735;BME280;59577;52.122;5.406;2023-05-03T00:41:58;103059.81;;;5.90;73.94
71735;BME280;59577;52.122;5.406;2023-05-03T00:44:24;103060.09;;;5.89;73.60
71735;BME280;59577;52.122;5.406;2023-05-03T00:46:51;103045.53;;;5.84;73.61
71735;BME280;59577;52.122;5.406;2023-05-03T00:49:18;103053.00;;;5.67;73.97
71735;BME280;59577;52.122;5.406;2023-05-03T00:51:45;103059.44;;;5.56;74.35
71735;BME280;59577;52.122;5.406;2023-05-03T00:54:11;103058.03;;;5.48;74.52
71735;BME280;59577;52.122;5.406;2023-05-03T00:56:39;103055.31;;;5.43;74.64
71735;BME280;59577;52.122;5.406;2023-05-03T00:59:17;103058.28;;;5.46;75.35
71735;BME280;59577;52.122;5.406;2023-05-03T01:01:47;103061.25;;;5.50;75.18
71735;BME280;59577;52.122;5.406;2023-05-03T01:04:14;103060.44;;;5.44;75.17
71735;BME280;59577;52.122;5.406;2023-05-03T01:07:07;103054.25;;;5.39;75.79
71735;BME280;59577;52.122;5.406;2023-05-03T01:09:51;103059.63;;;5.44;75.29
71735;BME280;59577;52.122;5.406;2023-05-03T01:15:26;103056.19;;;5.49;74.59
71735;BME280;59577;52.122;5.406;2023-05-03T01:18:02;103060.47;;;5.50;74.84
71735;BME280;59577;52.122;5.406;2023-05-03T01:20:33;103059.38;;;5.45;74.63
71735;BME280;59577;52.122;5.406;2023-05-03T01:23:06;103057.75;;;5.44;74.60
71735;BME280;59577;52.122;5.406;2023-05-03T01:25:34;103055.84;;;5.35;74.15
71735;BME280;59577;52.122;5.406;2023-05-03T01:28:01;103058.50;;;5.30;74.62
71735;BME280;59577;52.122;5.406;2023-05-03T01:30:29;103062.75;;;5.25;74.73
71735;BME280;59577;52.122;5.406;2023-05-03T01:38:02;103049.75;;;5.02;75.65
71735;BME280;59577;52.122;5.406;2023-05-03T01:40:31;103054.53;;;5.00;75.87
71735;BME280;59577;52.122;5.406;2023-05-03T01:43:02;103051.06;;;4.99;76.25
71735;BME280;59577;52.122;5.406;2023-05-03T01:45:29;103052.09;;;4.98;75.91
71735;BME280;59577;52.122;5.406;2023-05-03T01:47:56;103056.34;;;4.89;76.16
71735;BME280;59577;52.122;5.406;2023-05-03T01:50:23;103052.56;;;4.85;76.63
71735;BME280;59577;52.122;5.406;2023-05-03T01:52:49;103049.84;;;4.80;76.83
71735;BME280;59577;52.122;5.406;2023-05-03T01:55:17;103059.75;;;4.74;77.15
71735;BME280;59577;52.122;5.406;2023-05-03T01:57:44;103054.69;;;4.78;77.40
71735;BME280;59577;52.122;5.406;2023-05-03T02:00:11;103061.69;;;4.84;77.02
71735;BME280;59577;52.122;5.406;2023-05-03T02:02:37;103045.28;;;4.80;77.68
71735;BME280;59577;52.122;5.406;2023-05-03T02:05:04;103046.09;;;4.81;77.07
71735;BME280;59577;52.122;5.406;2023-05-03T02:07:31;103053.63;;;4.84;76.93
71735;BME280;59577;52.122;5.406;2023-05-03T02:09:58;103048.78;;;4.81;76.52
71735;BME280;59577;52.122;5.406;2023-05-03T02:12:28;103046.34;;;4.79;76.59
71735;BME280;59577;52.122;5.406;2023-05-03T02:14:54;103046.63;;;4.78;76.87
71735;BME280;59577;52.122;5.406;2023-05-03T02:17:21;103048.53;;;4.82;76.53
71735;BME280;59577;52.122;5.406;2023-05-03T02:19:52;103038.06;;;4.86;76.52
71735;BME280;59577;52.122;5.406;2023-05-03T02:22:18;103039.38;;;4.78;76.21
71735;BME280;59577;52.122;5.406;2023-05-03T02:24:45;103028.91;;;4.77;76.09
71735;BME280;59577;52.122;5.406;2023-05-03T02:27:12;103035.91;;;4.78;76.42
71735;BME280;59577;52.122;5.406;2023-05-03T02:29:38;103037.72;;;4.72;75.97
71735;BME280;59577;52.122;5.406;2023-05-03T02:32:05;103025.56;;;4.59;76.01
71735;BME280;59577;52.122;5.406;2023-05-03T02:34:35;103029.53;;;4.57;75.99
71735;BME280;59577;52.122;5.406;2023-05-03T02:37:03;103024.13;;;4.51;76.03
71735;BME280;59577;52.122;5.406;2023-05-03T02:39:30;103021.69;;;4.45;75.76
71735;BME280;59577;52.122;5.406;2023-05-03T02:41:57;103020.06;;;4.44;76.47
71735;BME280;59577;52.122;5.406;2023-05-03T02:44:23;103022.75;;;4.44;76.09
71735;BME280;59577;52.122;5.406;2023-05-03T02:46:50;103014.16;;;4.42;76.27
71735;BME280;59577;52.122;5.406;2023-05-03T02:49:16;103018.38;;;4.38;76.08
71735;BME280;59577;52.122;5.406;2023-05-03T02:51:43;103017.25;;;4.28;76.64
71735;BME280;59577;52.122;5.406;2023-05-03T02:54:09;103005.19;;;4.26;76.26
71735;BME280;59577;52.122;5.406;2023-05-03T02:56:36;103013.47;;;4.24;76.69
71735;BME280;59577;52.122;5.406;2023-05-03T02:59:03;103010.25;;;4.22;76.54
71735;BME280;59577;52.122;5.406;2023-05-03T03:01:32;103007.28;;;4.24;76.82
71735;BME280;59577;52.122;5.406;2023-05-03T03:03:59;103014.78;;;4.22;77.00
71735;BME280;59577;52.122;5.406;2023-05-03T03:06:25;103026.03;;;4.24;76.86
71735;BME280;59577;52.122;5.406;2023-05-03T03:08:52;103023.66;;;4.22;76.81
71735;BME280;59577;52.122;5.406;2023-05-03T03:11:19;103023.31;;;4.19;76.43
71735;BME280;59577;52.122;5.406;2023-05-03T03:13:45;103022.50;;;4.18;76.67
71735;BME280;59577;52.122;5.406;2023-05-03T03:16:12;103027.28;;;4.11;76.34
71735;BME280;59577;52.122;5.406;2023-05-03T03:18:39;103032.34;;;4.07;76.14
71735;BME280;59577;52.122;5.406;2023-05-03T03:21:05;103034.47;;;4.05;76.66
71735;BME280;59577;52.122;5.406;2023-05-03T03:23:32;103026.97;;;4.07;76.65
71735;BME280;59577;52.122;5.406;2023-05-03T03:25:58;103035.00;;;4.07;76.57
71735;BME280;59577;52.122;5.406;2023-05-03T03:28:25;103032.53;;;4.01;76.57
71735;BME280;59577;52.122;5.406;2023-05-03T03:30:52;103032.97;;;3.92;76.41
71735;BME280;59577;52.122;5.406;2023-05-03T03:33:19;103032.66;;;3.89;76.56
71735;BME280;59577;52.122;5.406;2023-05-03T03:35:48;103036.44;;;3.88;77.01
71735;BME280;59577;52.122;5.406;2023-05-03T03:38:15;103035.66;;;3.92;76.89
71735;BME280;59577;52.122;5.406;2023-05-03T03:40:41;103036.47;;;3.93;76.63
71735;BME280;59577;52.122;5.406;2023-05-03T03:43:10;103034.06;;;3.91;76.70
71735;BME280;59577;52.122;5.406;2023-05-03T03:45:36;103030.28;;;3.92;76.36
71735;BME280;59577;52.122;5.406;2023-05-03T03:48:03;103039.41;;;3.91;76.48
71735;BME280;59577;52.122;5.406;2023-05-03T03:50:30;103034.78;;;3.87;76.60
71735;BME280;59577;52.122;5.406;2023-05-03T03:52:56;103042.47;;;3.78;76.32
71735;BME280;59577;52.122;5.406;2023-05-03T03:55:23;103049.66;;;3.72;76.74
71735;BME280;59577;52.122;5.406;2023-05-03T03:57:49;103046.06;;;3.67;77.22
71735;BME280;59577;52.122;5.406;2023-05-03T04:00:16;103050.81;;;3.60;77.16
71735;BME280;59577;52.122;5.406;2023-05-03T04:02:42;103051.88;;;3.58;77.45
71735;BME280;59577;52.122;5.406;2023-05-03T04:05:10;103056.94;;;3.55;77.52
71735;BME280;59577;52.122;5.406;2023-05-03T04:07:37;103055.84;;;3.56;77.17
71735;BME280;59577;52.122;5.406;2023-05-03T04:10:03;103051.81;;;3.53;77.89
71735;BME280;59577;52.122;5.406;2023-05-03T04:12:30;103048.84;;;3.50;78.21
71735;BME280;59577;52.122;5.406;2023-05-03T04:15:00;103051.00;;;3.53;77.83
71735;BME280;59577;52.122;5.406;2023-05-03T04:17:26;103048.31;;;3.53;77.79
71735;BME280;59577;52.122;5.406;2023-05-03T04:19:54;103055.38;;;3.59;77.99
71735;BME280;59577;52.122;5.406;2023-05-03T04:22:21;103053.44;;;3.54;77.73
71735;BME280;59577;52.122;5.406;2023-05-03T04:24:47;103060.66;;;3.54;78.25
71735;BME280;59577;52.122;5.406;2023-05-03T04:27:14;103068.69;;;3.54;78.14
71735;BME280;59577;52.122;5.406;2023-05-03T04:29:43;103071.94;;;3.56;78.10
71735;BME280;59577;52.122;5.406;2023-05-03T04:32:12;103080.44;;;3.53;77.94
71735;BME280;59577;52.122;5.406;2023-05-03T04:34:40;103077.47;;;3.49;78.23
71735;BME280;59577;52.122;5.406;2023-05-03T04:37:07;103084.50;;;3.55;78.43
71735;BME280;59577;52.122;5.406;2023-05-03T04:39:34;103089.81;;;3.72;78.44
71735;BME280;59577;52.122;5.406;2023-05-03T04:42:01;103091.53;;;3.84;78.04
71735;BME280;59577;52.122;5.406;2023-05-03T04:44:28;103092.44;;;3.89;77.60
71735;BME280;59577;52.122;5.406;2023-05-03T04:46:55;103099.97;;;3.92;77.11
71735;BME280;59577;52.122;5.406;2023-05-03T04:49:21;103096.22;;;3.93;76.80
71735;BME280;59577;52.122;5.406;2023-05-03T04:51:48;103099.16;;;3.92;77.10
71735;BME280;59577;52.122;5.406;2023-05-03T04:54:14;103107.19;;;3.92;77.65
71735;BME280;59577;52.122;5.406;2023-05-03T04:56:41;103101.22;;;3.85;77.01
71735;BME280;59577;52.122;5.406;2023-05-03T04:59:07;103102.00;;;3.85;77.34
71735;BME280;59577;52.122;5.406;2023-05-03T05:01:34;103104.06;;;4.00;77.68
71735;BME280;59577;52.122;5.406;2023-05-03T05:04:01;103100.13;;;4.08;77.57
71735;BME280;59577;52.122;5.406;2023-05-03T05:06:28;103098.06;;;4.15;77.44
71735;BME280;59577;52.122;5.406;2023-05-03T05:08:55;103097.44;;;4.30;77.49
71735;BME280;59577;52.122;5.406;2023-05-03T05:11:21;103103.13;;;4.39;77.56
71735;BME280;59577;52.122;5.406;2023-05-03T05:13:49;103098.97;;;4.53;77.83
71735;BME280;59577;52.122;5.406;2023-05-03T05:16:15;103097.56;;;4.73;77.71
71735;BME280;59577;52.122;5.406;2023-05-03T05:18:42;103097.97;;;4.92;78.10
71735;BME280;59577;52.122;5.406;2023-05-03T05:21:09;103109.16;;;5.16;78.00
71735;BME280;59577;52.122;5.406;2023-05-03T05:23:36;103106.84;;;5.88;78.50
71735;BME280;59577;52.122;5.406;2023-05-03T05:26:02;103095.53;;;7.76;74.22
71735;BME280;59577;52.122;5.406;2023-05-03T05:28:29;103097.75;;;10.08;68.02
71735;BME280;59577;52.122;5.406;2023-05-03T05:30:56;103095.63;;;11.92;63.12
71735;BME280;59577;52.122;5.406;2023-05-03T05:33:22;103100.38;;;13.70;58.03
71735;BME280;59577;52.122;5.406;2023-05-03T05:35:49;103096.16;;;15.34;53.30
71735;BME280;59577;52.122;5.406;2023-05-03T05:38:16;103103.34;;;16.86;49.53
71735;BME280;59577;52.122;5.406;2023-05-03T05:40:43;103101.03;;;17.99;46.51
71735;BME280;59577;52.122;5.406;2023-05-03T05:43:12;103093.84;;;18.95;44.34
71735;BME280;59577;52.122;5.406;2023-05-03T05:45:42;103100.94;;;19.83;41.57
71735;BME280;59577;52.122;5.406;2023-05-03T05:48:09;103101.53;;;20.51;39.63
71735;BME280;59577;52.122;5.406;2023-05-03T05:50:39;103086.09;;;21.15;36.79
71735;BME280;59577;52.122;5.406;2023-05-03T05:53:05;103107.00;;;22.04;35.03
71735;BME280;59577;52.122;5.406;2023-05-03T05:55:35;103093.94;;;22.68;34.12
71735;BME280;59577;52.122;5.406;2023-05-03T05:58:02;103091.94;;;23.10;33.85
71735;BME280;59577;52.122;5.406;2023-05-03T06:00:29;103099.78;;;23.67;32.39
71735;BME280;59577;52.122;5.406;2023-05-03T06:02:55;103092.06;;;24.16;30.02
71735;BME280;59577;52.122;5.406;2023-05-03T06:05:22;103092.84;;;24.16;29.16
71735;BME280;59577;52.122;5.406;2023-05-03T06:07:49;103097.66;;;24.52;28.50
71735;BME280;59577;52.122;5.406;2023-05-03T06:10:16;103093.75;;;24.82;28.43
71735;BME280;59577;52.122;5.406;2023-05-03T06:12:42;103101.63;;;24.44;27.53
71735;BME280;59577;52.122;5.406;2023-05-03T06:15:09;103096.91;;;24.94;28.01
71735;BME280;59577;52.122;5.406;2023-05-03T06:17:36;103094.47;;;25.40;25.99
71735;BME280;59577;52.122;5.406;2023-05-03T06:20:03;103097.31;;;25.07;26.81
71735;BME280;59577;52.122;5.406;2023-05-03T06:22:30;103095.63;;;25.53;26.61
71735;BME280;59577;52.122;5.406;2023-05-03T06:24:57;103097.00;;;26.12;25.81
71735;BME280;59577;52.122;5.406;2023-05-03T06:27:23;103093.25;;;26.40;24.65
71735;BME280;59577;52.122;5.406;2023-05-03T06:29:52;103089.56;;;25.87;24.46
71735;BME280;59577;52.122;5.406;2023-05-03T06:32:19;103086.00;;;25.83;24.58
71735;BME280;59577;52.122;5.406;2023-05-03T06:34:48;103087.88;;;26.11;24.22
71735;BME280;59577;52.122;5.406;2023-05-03T06:37:15;103085.53;;;26.06;26.30
71735;BME280;59577;52.122;5.406;2023-05-03T06:39:42;103076.53;;;25.69;25.02
71735;BME280;59577;52.122;5.406;2023-05-03T06:42:09;103080.66;;;25.00;26.23
71735;BME280;59577;52.122;5.406;2023-05-03T06:44:35;103078.16;;;23.91;26.81
71735;BME280;59577;52.122;5.406;2023-05-03T06:47:02;103078.03;;;23.69;26.85
71735;BME280;59577;52.122;5.406;2023-05-03T06:49:38;103085.34;;;21.45;29.21
71735;BME280;59577;52.122;5.406;2023-05-03T06:52:04;103090.78;;;19.83;31.65
71735;BME280;59577;52.122;5.406;2023-05-03T06:54:36;103089.81;;;18.32;33.60
71735;BME280;59577;52.122;5.406;2023-05-03T06:57:02;103092.34;;;16.73;36.29
71735;BME280;59577;52.122;5.406;2023-05-03T06:59:30;103083.69;;;15.84;38.18
71735;BME280;59577;52.122;5.406;2023-05-03T07:02:00;103084.16;;;14.79;39.05
71735;BME280;59577;52.122;5.406;2023-05-03T07:04:26;103081.66;;;14.30;40.37
71735;BME280;59577;52.122;5.406;2023-05-03T07:06:53;103083.75;;;13.89;42.00
71735;BME280;59577;52.122;5.406;2023-05-03T07:09:22;103086.59;;;13.27;43.40
71735;BME280;59577;52.122;5.406;2023-05-03T07:12:07;103077.44;;;13.54;43.37
71735;BME280;59577;52.122;5.406;2023-05-03T07:14:34;103072.19;;;13.84;43.07
71735;BME280;59577;52.122;5.406;2023-05-03T07:17:00;103073.31;;;13.25;43.53
71735;BME280;59577;52.122;5.406;2023-05-03T07:19:27;103074.31;;;13.29;43.40
71735;BME280;59577;52.122;5.406;2023-05-03T07:21:54;103073.72;;;12.47;44.47
71735;BME280;59577;52.122;5.406;2023-05-03T07:24:20;103072.97;;;12.10;45.97
71735;BME280;59577;52.122;5.406;2023-05-03T07:26:47;103066.97;;;11.99;46.54
71735;BME280;59577;52.122;5.406;2023-05-03T07:29:17;103063.94;;;13.00;45.31
71735;BME280;59577;52.122;5.406;2023-05-03T07:31:47;103056.56;;;15.19;42.97
71735;BME280;59577;52.122;5.406;2023-05-03T07:34:14;103046.25;;;17.21;39.55
71735;BME280;59577;52.122;5.406;2023-05-03T07:36:41;103045.38;;;17.70;37.83
71735;BME280;59577;52.122;5.406;2023-05-03T07:39:08;103034.00;;;18.40;36.53
71735;BME280;59577;52.122;5.406;2023-05-03T07:41:34;103033.72;;;18.74;35.88
71735;BME280;59577;52.122;5.406;2023-05-03T07:44:02;103037.19;;;18.42;35.37
71735;BME280;59577;52.122;5.406;2023-05-03T07:46:29;103032.81;;;18.54;35.89
71735;BME280;59577;52.122;5.406;2023-05-03T07:49:01;103035.66;;;18.89;34.78
71735;BME280;59577;52.122;5.406;2023-05-03T07:51:28;103031.94;;;18.66;34.90
71735;BME280;59577;52.122;5.406;2023-05-03T07:53:55;103026.69;;;18.60;35.07
71735;BME280;59577;52.122;5.406;2023-05-03T07:56:22;103021.75;;;19.14;35.83
71735;BME280;59577;52.122;5.406;2023-05-03T07:58:48;103026.75;;;19.28;34.22
71735;BME280;59577;52.122;5.406;2023-05-03T08:01:30;103021.34;;;19.31;34.44
71735;BME280;59577;52.122;5.406;2023-05-03T08:03:57;103022.69;;;19.96;34.16
71735;BME280;59577;52.122;5.406;2023-05-03T08:06:24;103019.31;;;19.83;32.75
71735;BME280;59577;52.122;5.406;2023-05-03T08:08:51;103020.22;;;19.71;33.01
71735;BME280;59577;52.122;5.406;2023-05-03T08:11:17;103021.94;;;18.89;33.00
71735;BME280;59577;52.122;5.406;2023-05-03T08:13:44;103019.09;;;18.70;34.02
71735;BME280;59577;52.122;5.406;2023-05-03T08:16:12;103026.50;;;19.17;33.56
71735;BME280;59577;52.122;5.406;2023-05-03T08:18:38;103017.69;;;19.27;32.86
71735;BME280;59577;52.122;5.406;2023-05-03T08:21:05;103021.25;;;19.28;33.00
71735;BME280;59577;52.122;5.406;2023-05-03T08:23:34;103018.09;;;19.45;32.39
71735;BME280;59577;52.122;5.406;2023-05-03T08:26:00;103013.09;;;19.31;33.45
71735;BME280;59577;52.122;5.406;2023-05-03T08:28:29;103012.56;;;19.26;33.31
71735;BME280;59577;52.122;5.406;2023-05-03T08:30:56;102995.53;;;19.36;33.04
71735;BME280;59577;52.122;5.406;2023-05-03T08:33:23;102990.84;;;19.37;33.05
71735;BME280;59577;52.122;5.406;2023-05-03T08:35:49;102988.59;;;19.23;33.34
71735;BME280;59577;52.122;5.406;2023-05-03T08:38:16;102990.25;;;18.76;34.14
71735;BME280;59577;52.122;5.406;2023-05-03T08:40:44;102995.72;;;19.08;33.39
71735;BME280;59577;52.122;5.406;2023-05-03T08:43:14;102989.16;;;19.12;33.73
71735;BME280;59577;52.122;5.406;2023-05-03T08:45:42;102990.66;;;19.10;33.62
71735;BME280;59577;52.122;5.406;2023-05-03T08:48:08;102997.13;;;18.70;34.90
71735;BME280;59577;52.122;5.406;2023-05-03T08:50:35;103006.72;;;18.92;33.48
71735;BME280;59577;52.122;5.406;2023-05-03T08:53:08;103011.53;;;19.14;34.38
71735;BME280;59577;52.122;5.406;2023-05-03T08:55:38;103012.94;;;19.79;32.96
71735;BME280;59577;52.122;5.406;2023-05-03T08:58:06;103015.38;;;19.84;32.69
71735;BME280;59577;52.122;5.406;2023-05-03T09:00:35;103015.97;;;19.74;32.79
71735;BME280;59577;52.122;5.406;2023-05-03T09:03:03;103013.22;;;19.94;31.96
71735;BME280;59577;52.122;5.406;2023-05-03T09:05:32;103004.47;;;19.88;33.13
71735;BME280;59577;52.122;5.406;2023-05-03T09:08:07;103010.66;;;19.65;32.64
71735;BME280;59577;52.122;5.406;2023-05-03T09:10:39;103021.38;;;19.15;32.55
71735;BME280;59577;52.122;5.406;2023-05-03T09:13:06;103019.47;;;18.84;33.38
71735;BME280;59577;52.122;5.406;2023-05-03T09:15:33;103009.75;;;19.22;33.27
71735;BME280;59577;52.122;5.406;2023-05-03T09:18:14;103019.50;;;19.20;32.94
71735;BME280;59577;52.122;5.406;2023-05-03T09:20:44;103017.19;;;19.57;32.81
71735;BME280;59577;52.122;5.406;2023-05-03T09:25:54;103018.59;;;19.31;32.80
71735;BME280;59577;52.122;5.406;2023-05-03T09:28:20;103023.53;;;19.42;32.61
71735;BME280;59577;52.122;5.406;2023-05-03T09:30:47;103023.81;;;19.37;32.73
71735;BME280;59577;52.122;5.406;2023-05-03T09:33:28;103015.81;;;18.96;33.02
71735;BME280;59577;52.122;5.406;2023-05-03T09:35:56;103024.50;;;18.66;35.19
71735;BME280;59577;52.122;5.406;2023-05-03T09:38:28;103030.59;;;19.07;35.50
71735;BME280;59577;52.122;5.406;2023-05-03T09:40:56;103027.78;;;19.75;36.57
71735;BME280;59577;52.122;5.406;2023-05-03T09:43:23;103022.44;;;20.24;34.38
71735;BME280;59577;52.122;5.406;2023-05-03T09:45:50;103016.31;;;21.04;35.59
71735;BME280;59577;52.122;5.406;2023-05-03T09:48:16;103021.25;;;20.68;32.12
71735;BME280;59577;52.122;5.406;2023-05-03T09:50:44;103024.44;;;20.27;31.76
71735;BME280;59577;52.122;5.406;2023-05-03T09:53:11;103023.34;;;19.89;32.19
71735;BME280;59577;52.122;5.406;2023-05-03T09:55:39;103027.41;;;19.41;32.56
71735;BME280;59577;52.122;5.406;2023-05-03T09:58:06;103018.47;;;18.92;33.56
71735;BME280;59577;52.122;5.406;2023-05-03T10:00:40;103019.03;;;19.53;35.35
71735;BME280;59577;52.122;5.406;2023-05-03T10:03:09;103015.22;;;19.97;32.47
71735;BME280;59577;52.122;5.406;2023-05-03T10:05:47;103015.00;;;19.66;32.61
71735;BME280;59577;52.122;5.406;2023-05-03T10:08:21;103011.78;;;19.80;31.93
71735;BME280;59577;52.122;5.406;2023-05-03T10:10:51;103000.22;;;19.90;33.96
71735;BME280;59577;52.122;5.406;2023-05-03T10:13:20;103000.63;;;19.92;32.47
71735;BME280;59577;52.122;5.406;2023-05-03T10:16:07;102997.56;;;19.39;32.77
71735;BME280;59577;52.122;5.406;2023-05-03T10:18:52;102993.03;;;19.66;32.78
71735;BME280;59577;52.122;5.406;2023-05-03T10:21:37;102999.66;;;19.65;31.92
71735;BME280;59577;52.122;5.406;2023-05-03T10:24:12;102991.00;;;19.08;33.17
71735;BME280;59577;52.122;5.406;2023-05-03T10:26:40;102984.09;;;19.14;32.83
71735;BME280;59577;52.122;5.406;2023-05-03T10:32:03;102982.09;;;18.95;34.58
71735;BME280;59577;52.122;5.406;2023-05-03T10:34:32;102979.03;;;19.16;33.84
71735;BME280;59577;52.122;5.406;2023-05-03T10:37:01;102976.75;;;19.03;33.60
71735;BME280;59577;52.122;5.406;2023-05-03T10:39:29;102970.78;;;19.16;33.69
71735;BME280;59577;52.122;5.406;2023-05-03T10:42:02;102979.50;;;19.03;32.90
71735;BME280;59577;52.122;5.406;2023-05-03T10:44:48;102976.44;;;18.56;33.63
71735;BME280;59577;52.122;5.406;2023-05-03T10:47:18;102980.88;;;18.29;34.13
71735;BME280;59577;52.122;5.406;2023-05-03T10:49:44;102981.91;;;18.25;33.62
71735;BME280;59577;52.122;5.406;2023-05-03T10:55:01;102985.13;;;18.58;33.66
71735;BME280;59577;52.122;5.406;2023-05-03T10:57:30;102976.34;;;18.69;34.71
71735;BME280;59577;52.122;5.406;2023-05-03T10:59:58;102973.44;;;18.93;34.16
71735;BME280;59577;52.122;5.406;2023-05-03T11:02:30;102979.91;;;18.53;33.85
71735;BME280;59577;52.122;5.406;2023-05-03T11:05:01;102972.97;;;18.59;34.11
71735;BME280;59577;52.122;5.406;2023-05-03T11:07:31;102962.19;;;18.98;34.11
71735;BME280;59577;52.122;5.406;2023-05-03T11:09:58;102961.28;;;18.78;32.65
71735;BME280;59577;52.122;5.406;2023-05-03T11:12:24;102957.69;;;18.58;33.40
71735;BME280;59577;52.122;5.406;2023-05-03T11:14:51;102957.94;;;18.37;33.96
71735;BME280;59577;52.122;5.406;2023-05-03T11:17:17;102955.47;;;18.32;34.82
71735;BME280;59577;52.122;5.406;2023-05-03T11:19:44;102935.47;;;18.48;35.25
71735;BME280;59577;52.122;5.406;2023-05-03T11:22:10;102946.34;;;18.60;34.30
71735;BME280;59577;52.122;5.406;2023-05-03T11:24:37;102934.41;;;18.68;33.41
71735;BME280;59577;52.122;5.406;2023-05-03T11:27:04;102931.59;;;18.33;33.73
71735;BME280;59577;52.122;5.406;2023-05-03T11:29:34;102927.84;;;17.93;33.70
71735;BME280;59577;52.122;5.406;2023-05-03T11:32:00;102926.69;;;17.94;36.42
71735;BME280;59577;52.122;5.406;2023-05-03T11:34:27;102936.34;;;18.20;34.30
71735;BME280;59577;52.122;5.406;2023-05-03T11:36:53;102933.16;;;18.02;34.53
71735;BME280;59577;52.122;5.406;2023-05-03T11:39:20;102923.84;;;17.91;35.16
71735;BME280;59577;52.122;5.406;2023-05-03T11:42:03;102925.03;;;18.06;34.52
71735;BME280;59577;52.122;5.406;2023-05-03T11:44:30;102916.91;;;18.25;36.03
71735;BME280;59577;52.122;5.406;2023-05-03T11:46:57;102919.56;;;18.53;35.05
71735;BME280;59577;52.122;5.406;2023-05-03T11:49:24;102926.81;;;18.14;34.55
71735;BME280;59577;52.122;5.406;2023-05-03T11:51:51;102907.78;;;17.89;36.18
71735;BME280;59577;52.122;5.406;2023-05-03T11:54:21;102914.09;;;17.77;35.38
71735;BME280;59577;52.122;5.406;2023-05-03T11:56:55;102905.63;;;17.82;34.92
71735;BME280;59577;52.122;5.406;2023-05-03T11:59:37;102898.09;;;17.79;35.04
71735;BME280;59577;52.122;5.406;2023-05-03T12:02:05;102910.91;;;17.75;35.50
71735;BME280;59577;52.122;5.406;2023-05-03T12:04:33;102903.19;;;18.09;38.20
71735;BME280;59577;52.122;5.406;2023-05-03T12:07:01;102907.09;;;18.08;34.73
71735;BME280;59577;52.122;5.406;2023-05-03T12:09:30;102898.44;;;17.78;36.49
71735;BME280;59577;52.122;5.406;2023-05-03T12:11:57;102889.53;;;17.81;35.47
71735;BME280;59577;52.122;5.406;2023-05-03T12:14:27;102890.72;;;17.52;35.47
71735;BME280;59577;52.122;5.406;2023-05-03T12:16:54;102881.09;;;17.29;34.79
71735;BME280;59577;52.122;5.406;2023-05-03T12:19:31;102877.63;;;17.45;35.44
71735;BME280;59577;52.122;5.406;2023-05-03T12:22:00;102880.81;;;17.63;35.46
71735;BME280;59577;52.122;5.406;2023-05-03T12:24:47;102879.50;;;17.57;36.88
71735;BME280;59577;52.122;5.406;2023-05-03T12:27:15;102874.09;;;18.04;35.50
71735;BME280;59577;52.122;5.406;2023-05-03T12:29:44;102867.22;;;17.95;36.07
71735;BME280;59577;52.122;5.406;2023-05-03T12:32:12;102857.75;;;18.40;38.62
71735;BME280;59577;52.122;5.406;2023-05-03T12:34:39;102866.97;;;18.83;36.51
71735;BME280;59577;52.122;5.406;2023-05-03T12:37:07;102865.78;;;18.49;34.18
71735;BME280;59577;52.122;5.406;2023-05-03T12:39:37;102853.59;;;18.30;34.89
71735;BME280;59577;52.122;5.406;2023-05-03T12:42:05;102850.94;;;18.18;34.99
71735;BME280;59577;52.122;5.406;2023-05-03T12:44:36;102845.72;;;18.29;39.54
71735;BME280;59577;52.122;5.406;2023-05-03T12:47:07;102838.34;;;18.84;36.58
71735;BME280;59577;52.122;5.406;2023-05-03T12:49:35;102839.38;;;19.15;38.29
71735;BME280;59577;52.122;5.406;2023-05-03T12:52:04;102828.31;;;19.31;34.74
71735;BME280;59577;52.122;5.406;2023-05-03T12:54:51;102835.28;;;18.70;34.38
71735;BME280;59577;52.122;5.406;2023-05-03T12:57:28;102826.09;;;18.27;33.78
71735;BME280;59577;52.122;5.406;2023-05-03T12:59:56;102819.28;;;18.36;34.91
71735;BME280;59577;52.122;5.406;2023-05-03T13:02:28;102820.72;;;18.14;35.75
71735;BME280;59577;52.122;5.406;2023-05-03T13:04:58;102821.84;;;18.13;35.82
71735;BME280;59577;52.122;5.406;2023-05-03T13:07:27;102819.84;;;18.10;34.89
71735;BME280;59577;52.122;5.406;2023-05-03T13:09:56;102820.47;;;17.88;34.82
71735;BME280;59577;52.122;5.406;2023-05-03T13:12:27;102807.22;;;17.90;35.20
71735;BME280;59577;52.122;5.406;2023-05-03T13:14:53;102810.88;;;18.13;34.99
71735;BME280;59577;52.122;5.406;2023-05-03T13:17:20;102796.69;;;17.92;34.45